createdAt,value
2023-01-18T00:04:41.588Z,97642.72
2023-01-18T00:09:43.077Z,97645.56
2023-01-18T00:14:44.529Z,97637.16
2023-01-18T00:19:45.949Z,97640.78
2023-01-18T00:24:47.417Z,97637.09
2023-01-18T00:29:48.880Z,97642.41
2023-01-18T00:34:50.665Z,97632.59
2023-01-18T00:39:52.102Z,97639.09
2023-01-18T00:44:53.606Z,97659.84
2023-01-18T00:49:55.082Z,97657.91
2023-01-18T00:54:56.569Z,97647.31
2023-01-18T00:59:57.973Z,97635.84
2023-01-18T01:05:18.441Z,97629.25
2023-01-18T01:10:19.931Z,97627.38
2023-01-18T01:15:39.578Z,97619.72
2023-01-18T01:20:59.567Z,97605.03
2023-01-18T01:26:13.736Z,97589.38
2023-01-18T01:31:16.205Z,97594.63
2023-01-18T01:36:20.575Z,97588.75
2023-01-18T01:41:26.708Z,97599.50
2023-01-18T01:46:48.090Z,97596.59
2023-01-18T01:51:58.596Z,97599.66
2023-01-18T01:57:06.109Z,97601.75
2023-01-18T02:02:07.944Z,97596.47
2023-01-18T02:07:10.795Z,97582.84
2023-01-18T02:12:12.904Z,97584.25
2023-01-18T02:17:40.511Z,97585.94
2023-01-18T02:22:47.774Z,97581.50
2023-01-18T02:28:03.924Z,97582.63
2023-01-18T02:33:10.828Z,97583.19
2023-01-18T02:38:28.021Z,97591.59
2023-01-18T02:43:48.399Z,97594.94
2023-01-18T02:48:50.717Z,97600.84
2023-01-18T02:53:52.616Z,97599.75
2023-01-18T02:59:14.099Z,97596.13
2023-01-18T03:04:26.701Z,97595.78
2023-01-18T03:09:28.576Z,97606.78
2023-01-18T03:14:47.956Z,97597.97
2023-01-18T03:20:09.207Z,97600.41
2023-01-18T03:25:15.090Z,97602.63
2023-01-18T03:30:35.187Z,97609.94
2023-01-18T03:35:38.243Z,97610.63
2023-01-18T03:40:39.770Z,97609.78
2023-01-18T03:45:46.539Z,97594.78
2023-01-18T03:51:00.844Z,97607.41
2023-01-18T03:56:09.004Z,97601.81
2023-01-18T04:01:10.730Z,97593.25
2023-01-18T04:06:12.252Z,97588.03
2023-01-18T04:11:13.697Z,97567.59
2023-01-18T04:16:15.290Z,97559.09
2023-01-18T04:21:16.761Z,97553.16
2023-01-18T04:26:19.277Z,97549.66
2023-01-18T04:31:20.889Z,97554.88
2023-01-18T04:36:22.432Z,97571.47
2023-01-18T04:41:24.131Z,97589.56
2023-01-18T04:46:25.617Z,97592.41
2023-01-18T04:51:27.385Z,97582.03
2023-01-18T04:56:28.836Z,97585.16
2023-01-18T05:01:32.531Z,97573.78
2023-01-18T05:06:33.967Z,97603.56
2023-01-18T05:11:35.391Z,97624.72
2023-01-18T05:16:36.879Z,97618.16
2023-01-18T05:21:38.335Z,97605.66
2023-01-18T05:26:39.765Z,97598.09
2023-01-18T05:31:41.703Z,97594.47
2023-01-18T05:36:43.151Z,97585.91
2023-01-18T05:41:44.643Z,97578.19
2023-01-18T05:46:46.103Z,97569.63
2023-01-18T05:51:47.629Z,97563.69
2023-01-18T05:56:49.068Z,97572.38
2023-01-18T06:01:50.535Z,97577.00
2023-01-18T06:06:51.980Z,97579.66
2023-01-18T06:11:53.996Z,97578.13
2023-01-18T06:16:55.665Z,97583.59
2023-01-18T06:21:57.088Z,97580.75
2023-01-18T06:26:59.227Z,97584.41
2023-01-18T06:32:00.738Z,97582.44
2023-01-18T06:37:03.381Z,97577.91
2023-01-18T06:42:05.313Z,97565.03
2023-01-18T06:47:06.735Z,97559.44
2023-01-18T06:52:08.162Z,97562.22
2023-01-18T06:57:09.569Z,97554.94
2023-01-18T07:02:14.168Z,97553.53
2023-01-18T07:07:15.724Z,97558.03
2023-01-18T07:12:17.153Z,97567.00
2023-01-18T07:17:18.650Z,97562.00
2023-01-18T07:22:20.152Z,97568.44
2023-01-18T07:27:21.569Z,97583.06
2023-01-18T07:32:23.039Z,97597.69
2023-01-18T07:37:24.449Z,97585.31
2023-01-18T07:42:25.859Z,97581.69
2023-01-18T07:47:27.292Z,97582.38
2023-01-18T07:52:28.857Z,97592.91
2023-01-18T07:57:30.275Z,97590.53
2023-01-18T08:02:31.709Z,97588.41
2023-01-18T08:07:33.441Z,97586.47
2023-01-18T08:12:34.933Z,97592.06
2023-01-18T08:17:36.362Z,97612.84
2023-01-18T08:22:37.868Z,97611.41
2023-01-18T08:27:39.273Z,97620.69
2023-01-18T08:32:43.749Z,97622.94
2023-01-18T08:37:45.199Z,97630.22
2023-01-18T08:42:46.848Z,97634.19
2023-01-18T08:47:48.255Z,97642.03
2023-01-18T08:52:52.467Z,97636.44
2023-01-18T08:57:54.802Z,97631.78
2023-01-18T09:02:57.590Z,97634.19
2023-01-18T09:07:59.363Z,97646.81
2023-01-18T09:13:01.273Z,97647.66
2023-01-18T09:18:06.194Z,97665.06
2023-01-18T09:23:09.349Z,97678.00
2023-01-18T09:28:12.362Z,97679.72
2023-01-18T09:33:13.840Z,97680.25
2023-01-18T09:38:16.044Z,97675.19
2023-01-18T09:43:25.838Z,97675.22
2023-01-18T09:48:35.762Z,97685.72
2023-01-18T09:53:49.061Z,97676.31
2023-01-18T09:59:05.637Z,97673.25
2023-01-18T10:04:20.619Z,97670.16
2023-01-18T10:09:28.955Z,97666.19
2023-01-18T10:14:47.930Z,97669.59
2023-01-18T10:19:50.245Z,97675.22
2023-01-18T10:25:05.138Z,97674.66
2023-01-18T10:30:12.637Z,97674.09
2023-01-18T10:35:24.676Z,97679.72
2023-01-18T10:40:26.600Z,97690.69
2023-01-18T10:45:30.462Z,97700.13
2023-01-18T10:50:39.826Z,97696.31
2023-01-18T10:55:44.735Z,97703.06
2023-01-18T11:00:53.560Z,97712.63
2023-01-18T11:06:04.812Z,97711.19
2023-01-18T11:11:12.199Z,97714.13
2023-01-18T11:16:17.629Z,97717.63
2023-01-18T11:21:19.279Z,97711.19
2023-01-18T11:26:23.381Z,97720.75
2023-01-18T11:31:46.253Z,97714.88
2023-01-18T11:36:47.874Z,97727.09
2023-01-18T11:41:49.824Z,97738.50
2023-01-18T11:46:55.676Z,97742.41
2023-01-18T11:52:05.194Z,97746.91
2023-01-18T11:57:10.247Z,97748.31
2023-01-18T12:02:56.517Z,97748.88
2023-01-18T12:08:31.840Z,97763.19
2023-01-18T12:13:42.267Z,97776.78
2023-01-18T12:19:08.607Z,97776.91
2023-01-18T12:24:23.767Z,97784.50
2023-01-18T12:30:03.660Z,97786.19
2023-01-18T12:35:35.629Z,97789.88
2023-01-18T12:40:42.967Z,97805.06
2023-01-18T12:46:09.077Z,97816.72
2023-01-18T12:51:17.330Z,97822.75
2023-01-18T12:56:31.378Z,97838.78
2023-01-18T13:01:42.732Z,97847.13
2023-01-18T13:06:45.610Z,97853.00
2023-01-18T13:11:48.698Z,97860.75
2023-01-18T13:17:08.897Z,97883.50
2023-01-18T13:22:59.435Z,97894.34
2023-01-18T13:28:02.747Z,97900.06
2023-01-18T13:33:13.776Z,97915.84
2023-01-18T13:38:21.139Z,97922.03
2023-01-18T13:43:35.615Z,97928.91
2023-01-18T13:48:55.213Z,97929.03
2023-01-18T13:53:56.721Z,97953.22
2023-01-18T13:59:23.286Z,97961.94
2023-01-18T14:04:30.140Z,97974.03
2023-01-18T14:09:36.410Z,97986.66
2023-01-18T14:14:59.384Z,97990.06
2023-01-18T14:20:25.505Z,97998.53
2023-01-18T14:26:02.521Z,98013.41
2023-01-18T14:31:07.098Z,98030.63
2023-01-18T14:36:20.879Z,98026.13
2023-01-18T14:41:23.206Z,98046.06
2023-01-18T14:46:27.070Z,98042.69
2023-01-18T14:51:29.976Z,98054.50
2023-01-18T14:56:34.838Z,98067.16
2023-01-18T15:01:40.093Z,98057.88
2023-01-18T15:06:45.775Z,98063.59
2023-01-18T15:11:49.266Z,98090.75
2023-01-18T15:16:53.514Z,98100.59
2023-01-18T15:21:55.070Z,98109.44
2023-01-18T15:27:01.249Z,98115.78
2023-01-18T15:32:16.508Z,98129.97
2023-01-18T15:37:27.167Z,98137.41
2023-01-18T15:42:36.912Z,98144.97
2023-01-18T15:47:38.525Z,98141.44
2023-01-18T15:52:46.500Z,98148.09
2023-01-18T15:58:01.310Z,98151.94
2023-01-18T16:03:04.539Z,98155.69
2023-01-18T16:08:16.918Z,98171.94
2023-01-18T16:13:31.000Z,98173.03
2023-01-18T16:18:32.599Z,98175.44
2023-01-18T16:23:34.276Z,98190.47
2023-01-18T16:28:35.732Z,98198.00
2023-01-18T16:33:37.164Z,98202.19
2023-01-18T16:38:38.604Z,98212.63
2023-01-18T16:43:40.630Z,98219.72
2023-01-18T16:48:42.118Z,98220.91
2023-01-18T16:53:43.565Z,98228.22
2023-01-18T16:58:45.040Z,98235.97
2023-01-18T17:03:46.456Z,98244.22
2023-01-18T17:08:49.323Z,98248.56
2023-01-18T17:13:50.941Z,98255.88
2023-01-18T17:18:52.533Z,98274.06
2023-01-18T17:23:54.024Z,98277.22
2023-01-18T17:28:55.455Z,98292.97
2023-01-18T17:33:56.912Z,98306.06
2023-01-18T17:38:58.435Z,98303.66
2023-01-18T17:43:59.880Z,98310.69
2023-01-18T17:49:02.701Z,98316.50
2023-01-18T17:54:10.247Z,98326.19
2023-01-18T17:59:15.444Z,98322.06
2023-01-18T18:04:16.910Z,98330.66
2023-01-18T18:09:18.380Z,98338.16
2023-01-18T18:14:19.893Z,98338.66
2023-01-18T18:19:21.354Z,98358.69
2023-01-18T18:24:22.889Z,98354.88
2023-01-18T18:29:24.323Z,98360.13
2023-01-18T18:34:25.928Z,98360.38
2023-01-18T18:39:27.345Z,98365.22
2023-01-18T18:44:28.984Z,98377.56
2023-01-18T18:49:30.415Z,98387.44
2023-01-18T18:54:31.911Z,98409.66
2023-01-18T18:59:33.395Z,98410.38
2023-01-18T19:04:34.878Z,98424.66
2023-01-18T19:09:36.373Z,98416.19
2023-01-18T19:14:37.801Z,98424.91
2023-01-18T19:19:39.257Z,98443.22
2023-01-18T19:24:40.801Z,98433.16
2023-01-18T19:29:42.231Z,98461.53
2023-01-18T19:34:43.783Z,98461.25
2023-01-18T19:39:45.907Z,98473.97
2023-01-18T19:44:47.303Z,98480.34
2023-01-18T19:49:48.846Z,98481.22
2023-01-18T19:54:50.249Z,98493.69
2023-01-18T19:59:51.793Z,98504.06
2023-01-18T20:04:53.334Z,98503.50
2023-01-18T20:09:54.863Z,98522.81
2023-01-18T20:14:56.280Z,98537.50
2023-01-18T20:19:57.685Z,98548.69
2023-01-18T20:24:59.140Z,98550.97
2023-01-18T20:30:00.621Z,98557.44
2023-01-18T20:35:02.062Z,98565.91
2023-01-18T20:40:03.732Z,98565.91
2023-01-18T20:45:05.800Z,98566.16
2023-01-18T20:50:07.584Z,98562.53
2023-01-18T20:55:12.784Z,98555.25
2023-01-18T21:00:14.698Z,98553.31
2023-01-18T21:05:16.207Z,98556.47
2023-01-18T21:10:17.625Z,98567.53
2023-01-18T21:15:19.041Z,98564.19
2023-01-18T21:20:20.465Z,98560.94
2023-01-18T21:25:22.124Z,98563.16
2023-01-18T21:30:23.702Z,98564.72
2023-01-18T21:35:25.219Z,98560.88
2023-01-18T21:40:26.633Z,98571.78
2023-01-18T21:45:46.840Z,98599.13
2023-01-18T21:51:06.940Z,98608.94
2023-01-18T21:56:08.928Z,98615.13
2023-01-18T22:01:16.912Z,98623.16
2023-01-18T22:06:18.417Z,98633.88
2023-01-18T22:11:19.927Z,98632.44
2023-01-18T22:16:21.389Z,98649.19
2023-01-18T22:21:25.362Z,98662.78
2023-01-18T22:26:29.248Z,98682.06
2023-01-18T22:31:30.702Z,98690.69
2023-01-18T22:36:32.880Z,98690.00
2023-01-18T22:41:34.382Z,98688.94
2023-01-18T22:46:35.851Z,98691.28
2023-01-18T22:51:37.467Z,98698.91
2023-01-18T22:56:38.904Z,98689.19
2023-01-18T23:01:40.350Z,98696.03
2023-01-18T23:06:47.880Z,98701.34
2023-01-18T23:11:49.526Z,98699.41
2023-01-18T23:17:09.800Z,98713.97
2023-01-18T23:22:11.326Z,98717.84
2023-01-18T23:27:12.797Z,98724.56
2023-01-18T23:32:14.205Z,98712.28
2023-01-18T23:37:15.605Z,98723.41
2023-01-18T23:42:35.700Z,98726.44
2023-01-18T23:47:55.776Z,98729.88
2023-01-18T23:53:18.842Z,98757.78
2023-01-18T23:58:20.675Z,98770.16
